createdAt,value
2023-04-14T00:00:28.618Z,21.33
2023-04-14T00:03:01.459Z,18.70
2023-04-14T00:05:38.148Z,18.61
2023-04-14T00:08:10.366Z,18.83
2023-04-14T00:10:42.551Z,20.50
2023-04-14T00:13:14.847Z,20.64
2023-04-14T00:15:47.053Z,22.69
2023-04-14T00:18:19.204Z,22.41
2023-04-14T00:20:54.439Z,19.85
2023-04-14T00:23:26.618Z,20.82
2023-04-14T00:25:59.023Z,19.92
2023-04-14T00:28:31.244Z,19.59
2023-04-14T00:31:03.411Z,22.46
2023-04-14T00:33:35.718Z,29.65
2023-04-14T00:36:10.991Z,40.76
2023-04-14T00:38:43.124Z,41.09
2023-04-14T00:41:15.263Z,38.52
2023-04-14T00:43:47.446Z,41.54
2023-04-14T00:46:20.581Z,38.61
2023-04-14T00:48:53.431Z,32.06
2023-04-14T00:51:30.106Z,29.21
2023-04-14T00:54:03.505Z,31.16
2023-04-14T00:56:36.511Z,29.74
2023-04-14T00:59:11.417Z,26.58
2023-04-14T01:01:43.806Z,24.06
2023-04-14T01:04:16.599Z,22.16
2023-04-14T01:06:51.433Z,25.88
2023-04-14T01:09:24.321Z,31.63
2023-04-14T01:12:10.007Z,34.39
2023-04-14T01:14:48.781Z,34.59
2023-04-14T01:17:31.168Z,35.46
2023-04-14T01:20:16.056Z,34.63
2023-04-14T01:22:57.257Z,34.87
2023-04-14T01:26:06.610Z,35.28
2023-04-14T01:29:06.989Z,34.66
2023-04-14T01:31:48.460Z,36.16
2023-04-14T01:34:27.564Z,35.99
2023-04-14T01:37:06.560Z,34.79
2023-04-14T01:39:43.427Z,38.51
2023-04-14T01:42:21.356Z,37.88
2023-04-14T01:44:59.924Z,38.39
2023-04-14T01:47:35.522Z,39.66
2023-04-14T01:50:08.999Z,39.87
2023-04-14T01:52:43.673Z,37.99
2023-04-14T01:55:19.534Z,36.14
2023-04-14T01:57:56.074Z,33.28
2023-04-14T02:00:30.062Z,31.33
2023-04-14T02:03:06.497Z,28.31
2023-04-14T02:05:43.824Z,30.34
2023-04-14T02:08:18.181Z,33.04
2023-04-14T02:10:52.837Z,32.40
2023-04-14T02:13:28.128Z,33.26
2023-04-14T02:16:04.419Z,33.73
2023-04-14T02:18:43.071Z,32.64
2023-04-14T02:21:19.444Z,34.00
2023-04-14T02:23:51.675Z,35.90
2023-04-14T02:26:29.298Z,35.60
2023-04-14T02:29:13.779Z,34.44
2023-04-14T02:31:50.009Z,33.44
2023-04-14T02:34:32.299Z,36.99
2023-04-14T02:37:11.382Z,36.26
2023-04-14T02:39:47.573Z,34.16
2023-04-14T02:42:21.697Z,33.93
2023-04-14T02:45:06.408Z,33.06
2023-04-14T02:47:42.308Z,35.37
2023-04-14T02:50:22.225Z,34.43
2023-04-14T02:52:57.659Z,38.19
2023-04-14T02:55:31.397Z,47.59
2023-04-14T02:58:04.506Z,49.01
2023-04-14T03:00:38.547Z,52.74
2023-04-14T03:03:11.806Z,56.60
2023-04-14T03:05:49.452Z,55.23
2023-04-14T03:08:23.186Z,64.96
2023-04-14T03:10:58.204Z,57.70
2023-04-14T03:13:34.904Z,61.20
2023-04-14T03:16:08.678Z,59.85
2023-04-14T03:18:42.276Z,62.29
2023-04-14T03:21:20.241Z,59.27
2023-04-14T03:23:56.097Z,55.92
2023-04-14T03:26:31.512Z,53.87
2023-04-14T03:29:06.318Z,52.93
2023-04-14T03:31:44.333Z,50.51
2023-04-14T03:34:20.268Z,52.96
2023-04-14T03:36:57.987Z,53.29
2023-04-14T03:39:34.724Z,52.06
2023-04-14T03:42:08.201Z,50.66
2023-04-14T03:44:43.266Z,52.87
2023-04-14T03:47:15.924Z,51.56
2023-04-14T03:49:52.900Z,50.76
2023-04-14T03:52:30.956Z,48.80
2023-04-14T03:55:06.977Z,51.73
2023-04-14T03:57:41.424Z,51.91
2023-04-14T04:00:17.909Z,53.24
2023-04-14T04:02:51.061Z,56.54
2023-04-14T04:05:25.120Z,52.66
2023-04-14T04:08:05.084Z,57.69
2023-04-14T04:10:39.748Z,60.84
2023-04-14T04:13:16.629Z,54.96
2023-04-14T04:15:52.477Z,53.06
2023-04-14T04:18:26.630Z,57.25
2023-04-14T04:21:03.147Z,55.58
2023-04-14T04:23:41.300Z,56.47
2023-04-14T04:26:13.995Z,59.26
2023-04-14T04:28:46.902Z,61.36
2023-04-14T04:31:20.186Z,70.08
2023-04-14T04:33:53.526Z,68.65
2023-04-14T04:36:26.852Z,73.29
2023-04-14T04:39:02.006Z,73.02
2023-04-14T04:41:35.276Z,77.46
2023-04-14T04:44:07.467Z,69.64
2023-04-14T04:47:00.717Z,74.92
2023-04-14T04:49:33.309Z,71.38
2023-04-14T04:52:05.558Z,66.00
2023-04-14T04:54:40.581Z,65.61
2023-04-14T04:57:13.621Z,61.70
2023-04-14T04:59:46.644Z,64.83
2023-04-14T05:02:18.980Z,60.09
2023-04-14T05:04:51.390Z,60.61
2023-04-14T05:07:23.512Z,59.08
2023-04-14T05:09:58.369Z,58.04
2023-04-14T05:12:30.747Z,64.31
2023-04-14T05:15:03.241Z,64.68
2023-04-14T05:17:35.421Z,60.05
2023-04-14T05:20:08.046Z,57.24
2023-04-14T05:22:40.414Z,60.59
2023-04-14T05:25:15.565Z,59.43
2023-04-14T05:27:47.737Z,55.15
2023-04-14T05:30:20.071Z,59.56
2023-04-14T05:32:52.497Z,61.51
2023-04-14T05:35:25.430Z,65.54
2023-04-14T05:37:57.606Z,67.62
2023-04-14T05:40:32.354Z,72.18
2023-04-14T05:43:04.741Z,70.78
2023-04-14T05:45:36.894Z,74.36
2023-04-14T05:48:09.158Z,72.06
2023-04-14T05:50:41.641Z,75.77
2023-04-14T05:53:15.519Z,83.21
2023-04-14T05:55:50.282Z,85.16
2023-04-14T05:58:22.564Z,88.79
2023-04-14T06:00:54.782Z,88.56
2023-04-14T06:03:27.243Z,85.86
2023-04-14T06:05:59.772Z,83.90
2023-04-14T06:08:31.974Z,80.51
2023-04-14T06:11:07.524Z,80.43
2023-04-14T06:13:39.732Z,76.74
2023-04-14T06:16:12.627Z,75.34
2023-04-14T06:18:44.775Z,71.30
2023-04-14T06:21:16.986Z,70.79
2023-04-14T06:23:49.293Z,69.16
2023-04-14T06:26:24.148Z,65.30
2023-04-14T06:28:57.601Z,70.39
2023-04-14T06:31:29.893Z,70.15
2023-04-14T06:34:02.060Z,67.19
2023-04-14T06:36:34.589Z,71.15
2023-04-14T06:39:08.492Z,63.84
2023-04-14T06:41:44.154Z,62.08
2023-04-14T06:44:16.334Z,65.01
2023-04-14T06:46:48.621Z,62.59
2023-04-14T06:49:21.474Z,63.11
2023-04-14T06:51:53.753Z,64.08
2023-04-14T06:54:25.970Z,59.69
2023-04-14T06:57:01.740Z,60.59
2023-04-14T06:59:33.883Z,59.21
2023-04-14T07:02:06.379Z,59.59
2023-04-14T07:04:40.681Z,58.01
2023-04-14T07:07:14.533Z,58.49
2023-04-14T07:09:46.925Z,54.15
2023-04-14T07:12:22.255Z,53.24
2023-04-14T07:14:54.406Z,51.25
2023-04-14T07:17:26.573Z,51.92
2023-04-14T07:19:59.615Z,48.52
2023-04-14T07:22:31.882Z,45.04
2023-04-14T07:25:04.063Z,39.09
2023-04-14T07:27:39.736Z,41.70
2023-04-14T07:30:16.314Z,39.31
2023-04-14T07:32:48.537Z,38.29
2023-04-14T07:35:20.983Z,35.62
2023-04-14T07:37:53.152Z,34.32
2023-04-14T07:40:25.309Z,34.10
2023-04-14T07:43:00.515Z,29.99
2023-04-14T07:45:32.789Z,29.12
2023-04-14T07:48:04.915Z,26.41
2023-04-14T07:50:38.132Z,28.17
2023-04-14T07:53:10.247Z,27.27
2023-04-14T07:55:42.341Z,27.12
2023-04-14T07:58:17.131Z,25.90
2023-04-14T08:00:49.360Z,24.36
2023-04-14T08:03:22.113Z,25.09
2023-04-14T08:05:54.413Z,26.66
2023-04-14T08:08:26.942Z,26.80
2023-04-14T08:10:59.188Z,28.12
2023-04-14T08:13:34.019Z,27.23
2023-04-14T08:16:06.360Z,30.44
2023-04-14T08:18:38.651Z,28.97
2023-04-14T08:21:11.112Z,28.16
2023-04-14T08:23:43.436Z,26.51
2023-04-14T08:26:15.652Z,25.16
2023-04-14T08:28:51.032Z,24.33
2023-04-14T08:31:24.125Z,21.34
2023-04-14T08:33:57.424Z,20.27
2023-04-14T08:36:30.083Z,20.52
2023-04-14T08:39:04.385Z,20.12
2023-04-14T08:41:38.211Z,18.34
2023-04-14T08:44:13.447Z,15.16
2023-04-14T08:46:49.135Z,14.69
2023-04-14T08:49:33.607Z,15.71
2023-04-14T08:52:07.766Z,15.97
2023-04-14T08:54:40.123Z,18.19
2023-04-14T08:57:15.894Z,20.79
2023-04-14T08:59:52.346Z,17.27
2023-04-14T09:02:25.266Z,17.57
2023-04-14T09:04:57.983Z,12.73
2023-04-14T09:07:31.038Z,13.35
2023-04-14T09:10:04.273Z,12.70
2023-04-14T09:12:39.115Z,15.00
2023-04-14T09:15:17.109Z,16.59
2023-04-14T09:17:49.333Z,16.40
2023-04-14T09:20:36.048Z,17.72
2023-04-14T09:23:12.983Z,15.86
2023-04-14T09:25:46.214Z,14.99
2023-04-14T09:28:18.495Z,15.71
2023-04-14T09:30:53.298Z,15.56
2023-04-14T09:33:27.772Z,13.90
2023-04-14T09:35:59.990Z,15.39
2023-04-14T09:38:40.169Z,15.04
2023-04-14T09:41:13.260Z,16.91
2023-04-14T09:43:46.178Z,16.66
2023-04-14T09:46:21.279Z,15.81
2023-04-14T09:48:57.857Z,15.11
2023-04-14T09:51:33.540Z,15.79
2023-04-14T09:54:07.197Z,13.80
2023-04-14T09:56:39.450Z,14.94
2023-04-14T09:59:11.689Z,15.37
2023-04-14T10:01:50.180Z,15.99
2023-04-14T10:04:28.534Z,15.93
2023-04-14T10:07:01.377Z,18.03
2023-04-14T10:09:38.953Z,17.70
2023-04-14T10:12:13.567Z,17.20
2023-04-14T10:14:47.785Z,17.21
2023-04-14T10:17:22.795Z,17.09
2023-04-14T10:19:55.585Z,13.59
2023-04-14T10:22:29.653Z,15.46
2023-04-14T10:25:05.309Z,16.96
2023-04-14T10:27:39.312Z,17.33
2023-04-14T10:30:12.853Z,16.12
2023-04-14T10:32:50.865Z,17.04
2023-04-14T10:35:26.279Z,18.99
2023-04-14T10:37:58.571Z,18.93
2023-04-14T10:40:30.772Z,18.53
2023-04-14T10:43:03.087Z,18.29
2023-04-14T10:45:35.330Z,19.44
2023-04-14T10:48:11.868Z,21.10
2023-04-14T10:50:52.067Z,20.21
2023-04-14T10:53:24.361Z,22.83
2023-04-14T10:55:58.727Z,21.40
2023-04-14T10:58:32.867Z,21.26
2023-04-14T11:01:26.099Z,23.19
2023-04-14T11:04:02.038Z,20.63
2023-04-14T11:06:53.544Z,22.97
2023-04-14T11:09:39.516Z,21.31
2023-04-14T11:12:28.944Z,23.64
2023-04-14T11:15:06.477Z,22.95
2023-04-14T11:17:43.424Z,20.90
2023-04-14T11:20:23.516Z,21.91
2023-04-14T11:22:59.034Z,21.93
2023-04-14T11:25:31.618Z,19.50
2023-04-14T11:28:06.582Z,18.11
2023-04-14T11:30:39.037Z,17.61
2023-04-14T11:33:11.397Z,22.36
2023-04-14T11:35:46.955Z,20.75
2023-04-14T11:38:19.581Z,17.34
2023-04-14T11:40:53.833Z,18.28
2023-04-14T11:43:27.471Z,18.71
2023-04-14T11:46:02.245Z,17.29
2023-04-14T11:48:34.835Z,16.99
2023-04-14T11:51:10.043Z,16.96
2023-04-14T11:53:43.402Z,17.19
2023-04-14T11:56:16.010Z,17.71
2023-04-14T11:58:49.170Z,16.72
2023-04-14T12:01:29.577Z,16.89
2023-04-14T12:04:02.816Z,17.26
2023-04-14T12:06:40.449Z,17.20
2023-04-14T12:09:13.196Z,15.47
2023-04-14T12:11:45.542Z,13.81
2023-04-14T12:14:18.023Z,14.24
2023-04-14T12:16:50.371Z,15.44
2023-04-14T12:19:22.645Z,17.79
2023-04-14T12:21:58.348Z,15.03
2023-04-14T12:24:38.027Z,15.84
2023-04-14T12:27:11.246Z,14.19
2023-04-14T12:29:48.808Z,13.74
2023-04-14T12:32:22.380Z,13.39
2023-04-14T12:34:58.686Z,12.72
2023-04-14T12:37:33.508Z,14.51
2023-04-14T12:40:07.169Z,13.87
2023-04-14T12:42:51.676Z,16.52
2023-04-14T12:45:23.838Z,15.47
2023-04-14T12:48:00.340Z,15.89
2023-04-14T12:50:34.187Z,14.33
2023-04-14T12:53:28.585Z,15.04
2023-04-14T12:56:12.333Z,15.07
2023-04-14T12:58:47.039Z,14.69
2023-04-14T13:01:22.653Z,14.54
2023-04-14T13:03:56.329Z,17.05
2023-04-14T13:06:30.025Z,16.32
2023-04-14T13:09:04.900Z,14.61
2023-04-14T13:11:37.156Z,15.58
2023-04-14T13:14:09.377Z,14.69
2023-04-14T13:16:41.628Z,15.49
2023-04-14T13:19:14.404Z,15.13
2023-04-14T13:21:46.620Z,12.66
2023-04-14T13:24:21.370Z,13.38
2023-04-14T13:26:53.546Z,11.37
2023-04-14T13:29:25.755Z,12.12
2023-04-14T13:31:57.982Z,11.45
2023-04-14T13:34:30.563Z,13.83
2023-04-14T13:37:02.724Z,14.99
2023-04-14T13:39:37.688Z,13.98
2023-04-14T13:42:09.941Z,12.33
2023-04-14T13:44:42.187Z,12.54
2023-04-14T13:47:14.447Z,11.82
2023-04-14T13:49:46.625Z,10.76
2023-04-14T13:52:18.774Z,11.66
2023-04-14T13:54:53.544Z,10.63
2023-04-14T13:57:26.478Z,12.36
2023-04-14T13:59:58.664Z,11.31
2023-04-14T14:05:04.946Z,13.45
2023-04-14T14:07:37.151Z,11.91
2023-04-14T14:10:12.982Z,11.89
2023-04-14T14:12:45.486Z,12.56
2023-04-14T14:15:17.665Z,12.07
2023-04-14T14:17:49.938Z,10.76
2023-04-14T14:20:22.461Z,10.02
2023-04-14T14:22:54.644Z,9.52
2023-04-14T14:25:29.407Z,8.86
2023-04-14T14:28:01.526Z,10.03
2023-04-14T14:30:33.900Z,9.26
2023-04-14T14:33:23.004Z,8.89
2023-04-14T14:36:07.797Z,9.92
2023-04-14T14:38:40.112Z,9.88
2023-04-14T14:41:14.898Z,12.31
2023-04-14T14:43:47.021Z,11.27
2023-04-14T14:46:19.360Z,11.45
2023-04-14T14:48:51.666Z,12.21
2023-04-14T14:51:24.325Z,14.49
2023-04-14T14:54:08.786Z,12.80
2023-04-14T14:56:44.547Z,11.65
2023-04-14T14:59:16.753Z,10.42
2023-04-14T15:01:50.030Z,10.84
2023-04-14T15:04:22.770Z,10.74
2023-04-14T15:06:54.990Z,9.97
2023-04-14T15:09:27.117Z,10.22
2023-04-14T15:12:02.430Z,9.01
2023-04-14T15:14:34.778Z,10.42
2023-04-14T15:17:07.250Z,11.56
2023-04-14T15:19:39.716Z,12.08
2023-04-14T15:22:12.722Z,10.98
2023-04-14T15:24:44.888Z,9.00
2023-04-14T15:27:19.609Z,9.81
2023-04-14T15:29:51.838Z,9.41
2023-04-14T15:32:26.719Z,9.29
2023-04-14T15:34:59.234Z,9.40
2023-04-14T15:37:31.416Z,10.04
2023-04-14T15:40:04.296Z,10.41
2023-04-14T15:42:39.153Z,10.58
2023-04-14T15:45:12.491Z,10.26
2023-04-14T15:47:46.340Z,10.80
2023-04-14T15:50:19.121Z,11.11
2023-04-14T15:52:52.186Z,11.84
2023-04-14T15:55:24.650Z,11.26
2023-04-14T15:58:00.147Z,11.10
2023-04-14T16:00:32.325Z,11.58
2023-04-14T16:03:04.843Z,11.70
2023-04-14T16:05:37.166Z,13.75
2023-04-14T16:08:09.571Z,13.29
2023-04-14T16:10:43.802Z,13.35
2023-04-14T16:13:18.508Z,12.44
2023-04-14T16:15:50.666Z,14.93
2023-04-14T16:18:22.834Z,16.79
2023-04-14T16:20:55.010Z,15.16
2023-04-14T16:23:27.231Z,15.59
2023-04-14T16:25:59.844Z,14.68
2023-04-14T16:28:34.673Z,14.01
2023-04-14T16:31:08.245Z,13.52
2023-04-14T16:33:40.511Z,13.56
2023-04-14T16:36:12.972Z,13.97
2023-04-14T16:38:45.279Z,15.25
2023-04-14T16:41:17.453Z,12.50
2023-04-14T16:43:52.537Z,13.07
2023-04-14T16:46:25.765Z,13.25
2023-04-14T16:48:58.425Z,12.07
2023-04-14T16:51:30.587Z,12.15
2023-04-14T16:54:02.927Z,11.69
2023-04-14T16:56:36.863Z,11.19
2023-04-14T16:59:12.894Z,12.16
2023-04-14T17:01:45.244Z,12.88
2023-04-14T17:04:17.883Z,13.41
2023-04-14T17:06:50.504Z,14.15
2023-04-14T17:09:23.587Z,13.68
2023-04-14T17:11:55.753Z,12.28
2023-04-14T17:14:30.595Z,11.79
2023-04-14T17:17:02.977Z,13.06
2023-04-14T17:19:35.153Z,14.55
2023-04-14T17:22:07.561Z,15.43
2023-04-14T17:24:39.734Z,15.36
2023-04-14T17:27:11.951Z,15.46
2023-04-14T17:29:46.763Z,14.80
2023-04-14T17:32:19.067Z,14.24
2023-04-14T17:34:52.848Z,14.56
2023-04-14T17:37:25.554Z,15.21
2023-04-14T17:39:58.512Z,13.89
2023-04-14T17:42:31.145Z,16.41
2023-04-14T17:45:05.955Z,29.30
2023-04-14T17:47:39.972Z,54.60
2023-04-14T17:50:13.308Z,63.09
2023-04-14T17:52:45.833Z,35.68
2023-04-14T17:55:18.706Z,43.28
2023-04-14T17:57:51.018Z,33.04
2023-04-14T18:00:27.539Z,37.13
2023-04-14T18:02:59.853Z,32.31
2023-04-14T18:05:32.109Z,30.17
2023-04-14T18:08:04.301Z,31.88
2023-04-14T18:10:37.982Z,43.58
2023-04-14T18:13:10.638Z,48.82
2023-04-14T18:15:48.119Z,40.98
2023-04-14T18:18:20.234Z,37.80
2023-04-14T18:20:54.131Z,33.04
2023-04-14T18:23:26.363Z,32.14
2023-04-14T18:28:40.733Z,33.24
2023-04-14T18:31:16.292Z,27.61
2023-04-14T18:33:49.129Z,28.99
2023-04-14T18:36:21.299Z,32.91
2023-04-14T18:38:53.527Z,36.58
2023-04-14T18:41:25.718Z,30.81
2023-04-14T18:43:57.859Z,28.50
2023-04-14T18:46:32.802Z,26.60
2023-04-14T18:49:05.866Z,21.79
2023-04-14T18:51:38.066Z,21.55
2023-04-14T18:54:10.646Z,21.69
2023-04-14T18:56:43.417Z,23.81
2023-04-14T18:59:15.645Z,22.19
2023-04-14T19:01:51.206Z,22.46
2023-04-14T19:04:24.039Z,22.89
2023-04-14T19:06:56.286Z,23.46
2023-04-14T19:09:28.999Z,28.18
2023-04-14T19:12:01.201Z,27.62
2023-04-14T19:14:33.414Z,26.96
2023-04-14T19:17:08.477Z,27.50
2023-04-14T19:19:41.436Z,27.70
2023-04-14T19:22:13.644Z,27.60
2023-04-14T19:24:45.831Z,30.91
2023-04-14T19:27:18.912Z,36.39
2023-04-14T19:29:51.124Z,41.80
2023-04-14T19:32:25.860Z,45.10
2023-04-14T19:34:58.371Z,47.66
2023-04-14T19:37:32.065Z,48.03
2023-04-14T19:40:06.297Z,45.88
2023-04-14T19:42:38.510Z,47.08
2023-04-14T19:45:12.121Z,46.40
2023-04-14T19:47:47.466Z,52.74
2023-04-14T19:50:19.701Z,54.49
2023-04-14T19:52:52.529Z,58.76
2023-04-14T19:55:24.978Z,61.08
2023-04-14T19:57:57.087Z,61.10
2023-04-14T20:00:29.257Z,60.18
2023-04-14T20:03:04.068Z,57.00
2023-04-14T20:05:38.073Z,59.39
2023-04-14T20:08:10.524Z,56.04
2023-04-14T20:10:43.771Z,64.19
2023-04-14T20:13:16.175Z,85.16
2023-04-14T20:15:49.424Z,84.31
2023-04-14T20:18:26.164Z,74.70
2023-04-14T20:20:59.159Z,64.37
2023-04-14T20:23:31.736Z,63.43
2023-04-14T20:26:04.238Z,65.66
2023-04-14T20:28:36.431Z,65.26
2023-04-14T20:31:09.793Z,64.06
2023-04-14T20:33:44.814Z,64.26
2023-04-14T20:36:17.304Z,63.58
2023-04-14T20:38:49.893Z,63.64
2023-04-14T20:41:22.154Z,61.04
2023-04-14T20:43:54.370Z,60.02
2023-04-14T20:46:26.694Z,59.09
2023-04-14T20:49:02.982Z,64.78
2023-04-14T20:51:35.544Z,66.77
2023-04-14T20:54:07.803Z,63.06
2023-04-14T20:56:40.214Z,56.61
2023-04-14T20:59:12.607Z,57.40
2023-04-14T21:01:46.270Z,55.48
2023-04-14T21:04:21.240Z,55.28
2023-04-14T21:06:54.060Z,56.11
2023-04-14T21:09:26.270Z,57.02
2023-04-14T21:12:14.648Z,53.71
2023-04-14T21:15:46.211Z,49.49
2023-04-14T21:17:49.552Z,49.24
2023-04-14T21:20:24.486Z,46.70
2023-04-14T21:22:57.092Z,49.78
2023-04-14T21:25:29.428Z,52.55
2023-04-14T21:28:01.815Z,55.41
2023-04-14T21:30:34.571Z,50.86
2023-04-14T21:33:08.874Z,53.74
2023-04-14T21:35:43.734Z,58.69
2023-04-14T21:38:15.948Z,62.88
2023-04-14T21:40:48.154Z,66.25
2023-04-14T21:43:20.858Z,66.40
2023-04-14T21:45:53.691Z,71.51
2023-04-14T21:48:26.403Z,75.30
2023-04-14T21:51:01.612Z,71.32
2023-04-14T21:53:34.060Z,71.69
2023-04-14T21:56:10.408Z,67.96
2023-04-14T21:58:43.565Z,65.97
2023-04-14T22:01:15.810Z,65.17
2023-04-14T22:03:48.279Z,61.14
2023-04-14T22:06:24.598Z,59.14
2023-04-14T22:08:56.828Z,64.24
2023-04-14T22:11:30.974Z,66.49
2023-04-14T22:14:05.467Z,68.60
2023-04-14T22:16:38.838Z,67.91
2023-04-14T22:19:11.757Z,66.04
2023-04-14T22:21:47.497Z,64.67
2023-04-14T22:24:19.657Z,60.74
2023-04-14T22:26:52.062Z,60.21
2023-04-14T22:29:24.331Z,55.05
2023-04-14T22:31:56.736Z,59.69
2023-04-14T22:34:28.867Z,58.14
2023-04-14T22:37:03.686Z,55.65
2023-04-14T22:39:36.041Z,54.89
2023-04-14T22:42:08.654Z,55.11
2023-04-14T22:44:41.349Z,57.24
2023-04-14T22:47:13.776Z,54.41
2023-04-14T22:49:45.893Z,50.59
2023-04-14T22:52:21.635Z,51.01
2023-04-14T22:54:54.082Z,52.77
2023-04-14T22:57:26.768Z,50.24
2023-04-14T22:59:58.965Z,53.08
2023-04-14T23:02:31.601Z,53.71
2023-04-14T23:05:04.475Z,56.76
2023-04-14T23:07:39.487Z,66.50
2023-04-14T23:10:12.646Z,77.59
2023-04-14T23:12:45.035Z,84.34
2023-04-14T23:15:17.293Z,86.76
2023-04-14T23:17:49.513Z,89.65
2023-04-14T23:20:22.092Z,88.96
2023-04-14T23:22:57.347Z,88.72
2023-04-14T23:25:29.769Z,87.86
2023-04-14T23:28:01.947Z,86.34
2023-04-14T23:30:34.194Z,87.21
2023-04-14T23:33:06.865Z,89.29
2023-04-14T23:35:40.488Z,89.14
2023-04-14T23:38:15.734Z,87.39
2023-04-14T23:40:48.832Z,89.13
2023-04-14T23:43:21.811Z,87.15
2023-04-14T23:45:54.063Z,86.79
2023-04-14T23:48:26.278Z,83.14
2023-04-14T23:51:02.028Z,84.73
2023-04-14T23:53:52.773Z,83.96
2023-04-14T23:56:24.956Z,84.05
2023-04-14T23:58:57.723Z,81.33
